Time;durP1;ratioP1;P1;durP2;ratioP2;P2;SDS_P1;SDS_P2;PMS_P1;PMS_P2;Temp;Humidity;BMP_temperature;BMP_pressure;BME280_temperature;BME280_humidity;BME280_pressure;Samples;Min_cycle;Max_cycle;Signal;HPM_P1;HPM_P2
2023/03/19 00:01:04;;;;;;;4.55;1.63;;;;;;;;;;5097054;27;20059;-67
2023/03/19 00:03:32;;;;;;;4.65;2.40;;;;;;;;;;5098099;27;20058;-67
2023/03/19 00:06:01;;;;;;;4.55;1.60;;;;;;;;;;5094759;27;20514;-66
2023/03/19 00:08:29;;;;;;;3.92;1.30;;;;;;;;;;5098038;28;20497;-67
2023/03/19 00:10:57;;;;;;;4.53;1.67;;;;;;;;;;5094251;28;20047;-67
2023/03/19 00:13:27;;;;;;;4.45;1.65;;;;;;;;;;5097959;28;20040;-67
2023/03/19 00:15:55;;;;;;;2.28;1.55;;;;;;;;;;5094657;28;20056;-67
2023/03/19 00:18:24;;;;;;;5.22;1.92;;;;;;;;;;5100266;27;20046;-67
2023/03/19 00:20:52;;;;;;;4.13;1.92;;;;;;;;;;5092316;28;20059;-67
2023/03/19 00:23:20;;;;;;;4.97;1.45;;;;;;;;;;5094695;28;20055;-67
2023/03/19 00:25:49;;;;;;;3.25;1.67;;;;;;;;;;5093822;28;20352;-67
2023/03/19 00:28:17;;;;;;;5.70;1.50;;;;;;;;;;5099505;28;20047;-67
2023/03/19 00:30:46;;;;;;;3.30;2.13;;;;;;;;;;5094091;27;20047;-67
2023/03/19 00:33:15;;;;;;;6.90;2.03;;;;;;;;;;5096806;28;20449;-67
2023/03/19 00:35:43;;;;;;;3.08;1.73;;;;;;;;;;5096774;28;20051;-67
2023/03/19 00:38:12;;;;;;;2.25;1.27;;;;;;;;;;5100808;28;20131;-67
2023/03/19 00:40:41;;;;;;;5.38;2.50;;;;;;;;;;5096661;27;20485;-67
2023/03/19 00:43:09;;;;;;;3.30;1.88;;;;;;;;;;5098609;28;20048;-67
2023/03/19 00:45:38;;;;;;;5.10;1.90;;;;;;;;;;5094863;27;20040;-67
2023/03/19 00:48:07;;;;;;;3.75;2.08;;;;;;;;;;5095816;27;20051;-67
2023/03/19 00:50:36;;;;;;;2.25;1.60;;;;;;;;;;5092432;28;20484;-67
2023/03/19 00:53:04;;;;;;;5.13;2.53;;;;;;;;;;5095874;28;20051;-67
2023/03/19 00:55:32;;;;;;;4.45;2.42;;;;;;;;;;5097344;28;20047;-67
2023/03/19 00:58:01;;;;;;;2.00;1.42;;;;;;;;;;5099712;28;20044;-68
2023/03/19 01:00:29;;;;;;;5.15;1.95;;;;;;;;;;5094270;28;20484;-68
2023/03/19 01:02:58;;;;;;;3.33;1.55;;;;;;;;;;5093190;28;20047;-68
2023/03/19 01:05:27;;;;;;;4.28;1.80;;;;;;;;;;5097649;27;20075;-68
2023/03/19 01:07:55;;;;;;;2.55;1.80;;;;;;;;;;5102412;28;20059;-68
2023/03/19 01:10:24;;;;;;;5.25;2.05;;;;;;;;;;5097626;28;20055;-68
2023/03/19 01:12:53;;;;;;;3.95;2.28;;;;;;;;;;5098505;28;20670;-67
2023/03/19 01:15:21;;;;;;;7.65;2.25;;;;;;;;;;5094908;28;20039;-67
2023/03/19 01:17:52;;;;;;;2.60;1.58;;;;;;;;;;5093099;28;20098;-67
2023/03/19 01:20:22;;;;;;;3.92;1.85;;;;;;;;;;5090992;28;20047;-67
2023/03/19 01:22:52;;;;;;;3.25;1.90;;;;;;;;;;5096695;28;20454;-67
2023/03/19 01:25:20;;;;;;;2.33;1.60;;;;;;;;;;5094761;28;20093;-67
2023/03/19 01:27:49;;;;;;;4.18;1.95;;;;;;;;;;5093385;28;20048;-67
2023/03/19 01:30:17;;;;;;;1.83;1.60;;;;;;;;;;5095865;28;20059;-67
2023/03/19 01:32:45;;;;;;;3.80;1.65;;;;;;;;;;5093751;28;20058;-67
2023/03/19 01:35:14;;;;;;;5.40;2.30;;;;;;;;;;5095570;28;21707;-67
2023/03/19 01:37:42;;;;;;;5.15;2.08;;;;;;;;;;5098262;28;20051;-67
2023/03/19 01:40:13;;;;;;;6.68;2.13;;;;;;;;;;5096127;28;20039;-67
2023/03/19 01:42:54;;;;;;;5.60;1.73;;;;;;;;;;5095003;28;20492;-67
2023/03/19 01:45:32;;;;;;;2.28;1.27;;;;;;;;;;5098037;28;20047;-67
2023/03/19 01:48:01;;;;;;;1.83;1.40;;;;;;;;;;5096749;28;20040;-67
2023/03/19 01:50:32;;;;;;;1.70;1.60;;;;;;;;;;5093210;28;20047;-67
2023/03/19 01:53:01;;;;;;;3.10;1.83;;;;;;;;;;5098636;28;20518;-67
2023/03/19 01:55:31;;;;;;;2.92;1.63;;;;;;;;;;5094626;28;20055;-67
2023/03/19 01:58:00;;;;;;;7.60;2.67;;;;;;;;;;5091301;28;20056;-67
2023/03/19 02:00:28;;;;;;;3.80;1.65;;;;;;;;;;5100010;28;20054;-67
2023/03/19 02:03:00;;;;;;;2.95;1.38;;;;;;;;;;5097597;28;20051;-67
2023/03/19 02:05:29;;;;;;;5.38;1.77;;;;;;;;;;5096644;28;20050;-67
2023/03/19 02:08:00;;;;;;;3.53;1.90;;;;;;;;;;5094769;28;20050;-67
2023/03/19 02:10:31;;;;;;;4.28;2.25;;;;;;;;;;5100141;28;20067;-67
2023/03/19 02:13:00;;;;;;;3.03;1.77;;;;;;;;;;5096878;28;20055;-67
2023/03/19 02:15:28;;;;;;;2.03;1.83;;;;;;;;;;5093108;28;20044;-67
2023/03/19 02:17:56;;;;;;;4.30;1.85;;;;;;;;;;5090651;28;20412;-67
2023/03/19 02:20:27;;;;;;;2.70;1.88;;;;;;;;;;5098833;28;20983;-67
2023/03/19 02:23:01;;;;;;;1.98;1.17;;;;;;;;;;5091484;28;20054;-67
2023/03/19 02:25:33;;;;;;;6.32;2.05;;;;;;;;;;5097162;28;20507;-67
2023/03/19 02:28:03;;;;;;;12.57;2.45;;;;;;;;;;5097612;28;20377;-67
2023/03/19 02:30:32;;;;;;;2.00;0.82;;;;;;;;;;5095133;28;20656;-67
2023/03/19 02:33:01;;;;;;;5.20;2.17;;;;;;;;;;5097660;28;20049;-67
2023/03/19 02:35:31;;;;;;;2.42;1.70;;;;;;;;;;5096835;27;20067;-67
2023/03/19 02:38:00;;;;;;;7.70;1.98;;;;;;;;;;5095041;27;20048;-67
2023/03/19 02:40:30;;;;;;;6.40;1.88;;;;;;;;;;5099332;28;20044;-67
2023/03/19 02:42:59;;;;;;;3.47;2.03;;;;;;;;;;5102768;28;20036;-68
2023/03/19 02:45:30;;;;;;;2.00;1.80;;;;;;;;;;5101016;28;20048;-67
2023/03/19 02:47:58;;;;;;;3.70;1.90;;;;;;;;;;5097618;28;20157;-67
2023/03/19 02:50:27;;;;;;;4.05;1.48;;;;;;;;;;5097584;27;20507;-67
2023/03/19 02:52:55;;;;;;;4.00;2.05;;;;;;;;;;5098417;27;20056;-67
2023/03/19 02:55:23;;;;;;;1.98;1.27;;;;;;;;;;5099231;28;20070;-67
2023/03/19 02:57:51;;;;;;;3.17;1.33;;;;;;;;;;5100165;27;20047;-67
2023/03/19 03:00:20;;;;;;;5.65;2.25;;;;;;;;;;5097666;27;20059;-67
2023/03/19 03:02:50;;;;;;;2.28;1.90;;;;;;;;;;5105528;28;20044;-67
2023/03/19 03:05:18;;;;;;;4.50;2.75;;;;;;;;;;5096844;27;20043;-67
2023/03/19 03:07:46;;;;;;;2.42;2.00;;;;;;;;;;5095429;28;20073;-67
2023/03/19 03:10:15;;;;;;;4.85;2.72;;;;;;;;;;5101201;28;20133;-67
2023/03/19 03:12:43;;;;;;;5.65;2.33;;;;;;;;;;5102091;28;20043;-67
2023/03/19 03:15:11;;;;;;;3.35;2.05;;;;;;;;;;5098089;28;20047;-67
2023/03/19 03:17:40;;;;;;;3.72;2.30;;;;;;;;;;5098906;28;20059;-67
2023/03/19 03:20:11;;;;;;;5.68;3.58;;;;;;;;;;5097542;27;20051;-67
2023/03/19 03:22:39;;;;;;;6.13;2.72;;;;;;;;;;5098479;28;20044;-67
2023/03/19 03:25:09;;;;;;;6.53;2.05;;;;;;;;;;5093890;28;20054;-67
2023/03/19 03:27:37;;;;;;;9.90;2.53;;;;;;;;;;5101299;28;20059;-67
2023/03/19 03:30:06;;;;;;;2.70;2.47;;;;;;;;;;5099918;28;20400;-67
2023/03/19 03:32:35;;;;;;;6.63;3.55;;;;;;;;;;5097165;28;20566;-67
2023/03/19 03:35:04;;;;;;;6.13;2.30;;;;;;;;;;5097490;27;20100;-67
2023/03/19 03:37:33;;;;;;;3.60;2.45;;;;;;;;;;5096732;28;20123;-67
2023/03/19 03:40:08;;;;;;;5.07;2.90;;;;;;;;;;5097191;28;20055;-67
2023/03/19 03:42:37;;;;;;;7.60;2.67;;;;;;;;;;5097494;28;20147;-67
2023/03/19 03:45:06;;;;;;;4.20;2.55;;;;;;;;;;5094379;28;20138;-67
2023/03/19 03:47:34;;;;;;;6.97;2.97;;;;;;;;;;5098121;28;20416;-67
2023/03/19 03:50:03;;;;;;;5.47;2.53;;;;;;;;;;5098134;27;20048;-67
2023/03/19 03:52:32;;;;;;;9.55;2.90;;;;;;;;;;5093195;27;20059;-67
2023/03/19 03:55:02;;;;;;;4.70;2.10;;;;;;;;;;5098192;28;20508;-67
2023/03/19 03:57:30;;;;;;;3.60;2.38;;;;;;;;;;5096151;28;20047;-67
2023/03/19 03:59:59;;;;;;;3.38;2.13;;;;;;;;;;5102417;28;20491;-66
2023/03/19 04:02:27;;;;;;;3.22;2.53;;;;;;;;;;5097073;27;20496;-67
2023/03/19 04:04:56;;;;;;;2.88;1.60;;;;;;;;;;5097565;28;20058;-67
2023/03/19 04:07:25;;;;;;;6.38;2.85;;;;;;;;;;5096008;27;20066;-67
2023/03/19 04:09:54;;;;;;;5.70;2.03;;;;;;;;;;5095864;27;20549;-67
2023/03/19 04:12:23;;;;;;;7.85;2.28;;;;;;;;;;5096502;27;20044;-67
2023/03/19 04:14:52;;;;;;;3.42;2.10;;;;;;;;;;5096287;28;20043;-67
2023/03/19 04:17:20;;;;;;;4.30;2.65;;;;;;;;;;5098382;28;20055;-67
2023/03/19 04:19:48;;;;;;;7.07;2.00;;;;;;;;;;5099706;28;20522;-67
2023/03/19 04:22:17;;;;;;;3.83;2.53;;;;;;;;;;5098762;27;20431;-67
2023/03/19 04:24:45;;;;;;;2.05;1.80;;;;;;;;;;5094323;28;20040;-67
2023/03/19 04:27:13;;;;;;;10.45;1.95;;;;;;;;;;5093422;28;20052;-67
2023/03/19 04:29:43;;;;;;;8.38;2.97;;;;;;;;;;5101842;28;20054;-67
2023/03/19 04:32:11;;;;;;;4.43;2.70;;;;;;;;;;5098878;27;20055;-67
2023/03/19 04:34:40;;;;;;;6.35;2.15;;;;;;;;;;5097931;28;20044;-66
2023/03/19 04:37:09;;;;;;;4.38;2.35;;;;;;;;;;5093434;28;20516;-66
2023/03/19 04:39:38;;;;;;;3.92;2.03;;;;;;;;;;5095369;28;20593;-67
2023/03/19 04:42:06;;;;;;;9.57;2.00;;;;;;;;;;5094835;28;20047;-67
2023/03/19 04:44:35;;;;;;;7.15;2.25;;;;;;;;;;5093543;28;20384;-67
2023/03/19 04:47:05;;;;;;;3.28;1.80;;;;;;;;;;5094594;28;20048;-66
2023/03/19 04:49:33;;;;;;;8.15;2.38;;;;;;;;;;5096947;28;20488;-67
2023/03/19 04:52:01;;;;;;;2.17;1.75;;;;;;;;;;5097725;28;20040;-66
2023/03/19 04:54:30;;;;;;;3.78;1.77;;;;;;;;;;5095875;28;20062;-66
2023/03/19 04:56:58;;;;;;;4.85;2.30;;;;;;;;;;5098410;28;20053;-66
2023/03/19 04:59:27;;;;;;;3.45;1.67;;;;;;;;;;5095859;28;20052;-67
2023/03/19 05:01:55;;;;;;;3.85;1.60;;;;;;;;;;5099897;27;20082;-67
2023/03/19 05:04:26;;;;;;;5.72;2.60;;;;;;;;;;5094774;28;20054;-66
2023/03/19 05:06:54;;;;;;;5.07;1.83;;;;;;;;;;5094095;28;20048;-67
2023/03/19 05:09:22;;;;;;;5.88;1.52;;;;;;;;;;5095059;27;20492;-67
2023/03/19 05:11:50;;;;;;;9.80;1.95;;;;;;;;;;5097562;28;20042;-67
2023/03/19 05:14:19;;;;;;;3.85;1.45;;;;;;;;;;5095938;28;20487;-67
2023/03/19 05:16:47;;;;;;;4.00;1.85;;;;;;;;;;5096541;28;20047;-67
2023/03/19 05:19:16;;;;;;;6.97;2.15;;;;;;;;;;5089757;28;20353;-67
2023/03/19 05:21:46;;;;;;;1.83;1.20;;;;;;;;;;5097690;28;20040;-67
2023/03/19 05:24:14;;;;;;;1.48;1.38;;;;;;;;;;5094715;28;20047;-67
2023/03/19 05:26:42;;;;;;;3.58;1.30;;;;;;;;;;5097385;28;20051;-67
2023/03/19 05:29:11;;;;;;;9.18;1.65;;;;;;;;;;5095734;28;20499;-66
2023/03/19 05:31:39;;;;;;;15.13;2.08;;;;;;;;;;5097542;28;20043;-67
2023/03/19 05:34:07;;;;;;;3.72;0.93;;;;;;;;;;5096554;28;20066;-67
2023/03/19 05:36:35;;;;;;;1.80;1.38;;;;;;;;;;5091030;27;20050;-67
2023/03/19 05:39:05;;;;;;;4.78;1.75;;;;;;;;;;5093179;28;20047;-67
2023/03/19 05:41:33;;;;;;;2.00;1.45;;;;;;;;;;5096675;28;20428;-67
2023/03/19 05:44:02;;;;;;;2.90;1.50;;;;;;;;;;5096986;28;20048;-67
2023/03/19 05:46:30;;;;;;;3.00;1.88;;;;;;;;;;5091031;28;20047;-67
2023/03/19 05:48:59;;;;;;;2.50;2.03;;;;;;;;;;5093090;28;20043;-67
2023/03/19 05:51:27;;;;;;;3.47;1.10;;;;;;;;;;5099677;28;20048;-67
2023/03/19 05:53:55;;;;;;;3.95;1.40;;;;;;;;;;5088434;28;20052;-67
2023/03/19 05:56:25;;;;;;;1.75;1.65;;;;;;;;;;5099345;28;20044;-67
2023/03/19 05:58:53;;;;;;;2.60;1.23;;;;;;;;;;5097029;28;20484;-67
2023/03/19 06:01:21;;;;;;;4.22;1.30;;;;;;;;;;5097733;28;20048;-67
2023/03/19 06:03:50;;;;;;;2.72;1.38;;;;;;;;;;5093605;28;20047;-67
2023/03/19 06:06:19;;;;;;;2.78;1.65;;;;;;;;;;5095481;28;20052;-67
2023/03/19 06:08:47;;;;;;;1.83;1.35;;;;;;;;;;5099441;27;20101;-67
2023/03/19 06:11:16;;;;;;;4.50;1.92;;;;;;;;;;5092531;27;20055;-67
2023/03/19 06:13:46;;;;;;;4.28;1.15;;;;;;;;;;5098793;28;20051;-67
2023/03/19 06:16:15;;;;;;;3.35;1.25;;;;;;;;;;5097649;28;20062;-66
2023/03/19 06:18:44;;;;;;;2.88;1.60;;;;;;;;;;5096182;28;20051;-67
2023/03/19 06:21:12;;;;;;;2.58;2.22;;;;;;;;;;5100441;28;20425;-67
2023/03/19 06:23:41;;;;;;;5.18;2.63;;;;;;;;;;5097287;27;20079;-66
2023/03/19 06:26:09;;;;;;;3.28;1.95;;;;;;;;;;5093005;27;20052;-66
2023/03/19 06:28:38;;;;;;;5.28;1.17;;;;;;;;;;5091146;27;20052;-67
2023/03/19 06:31:07;;;;;;;5.70;1.45;;;;;;;;;;5089539;28;20052;-67
2023/03/19 06:33:36;;;;;;;3.72;1.80;;;;;;;;;;5095885;27;20052;-67
2023/03/19 06:36:05;;;;;;;4.80;2.33;;;;;;;;;;5095916;27;20510;-66
2023/03/19 06:38:34;;;;;;;2.55;1.80;;;;;;;;;;5093121;27;20400;-67
2023/03/19 06:41:02;;;;;;;5.80;2.13;;;;;;;;;;5095374;27;20068;-66
2023/03/19 06:43:31;;;;;;;9.23;2.25;;;;;;;;;;5090835;28;20047;-67
2023/03/19 06:46:00;;;;;;;4.25;1.75;;;;;;;;;;5092941;27;20051;-66
2023/03/19 06:48:30;;;;;;;2.28;1.83;;;;;;;;;;5096250;27;20051;-67
2023/03/19 06:50:58;;;;;;;2.65;1.55;;;;;;;;;;5095714;27;20058;-67
2023/03/19 06:53:26;;;;;;;3.92;1.88;;;;;;;;;;5089620;27;20054;-67
2023/03/19 06:55:55;;;;;;;2.28;1.33;;;;;;;;;;5094324;28;20045;-66
2023/03/19 06:58:23;;;;;;;2.45;1.08;;;;;;;;;;5096134;28;20047;-66
2023/03/19 07:00:52;;;;;;;6.95;2.00;;;;;;;;;;5089540;27;20488;-66
2023/03/19 07:03:20;;;;;;;4.40;1.92;;;;;;;;;;5089297;28;20599;-66
2023/03/19 07:05:50;;;;;;;4.53;1.77;;;;;;;;;;5096928;28;20036;-66
2023/03/19 07:08:19;;;;;;;2.70;1.85;;;;;;;;;;5094623;28;20060;-66
2023/03/19 07:10:47;;;;;;;2.13;1.20;;;;;;;;;;5095918;28;20044;-65
2023/03/19 07:13:15;;;;;;;5.22;2.05;;;;;;;;;;5098207;28;20514;-67
2023/03/19 07:15:43;;;;;;;6.00;2.53;;;;;;;;;;5092989;27;20062;-67
2023/03/19 07:18:12;;;;;;;4.53;1.85;;;;;;;;;;5093286;28;20040;-69
2023/03/19 07:20:40;;;;;;;4.15;1.98;;;;;;;;;;5094418;28;20734;-67
2023/03/19 07:23:09;;;;;;;3.35;1.65;;;;;;;;;;5099137;28;20058;-66
2023/03/19 07:25:38;;;;;;;2.65;1.98;;;;;;;;;;5090396;27;20051;-67
2023/03/19 07:28:06;;;;;;;2.90;1.67;;;;;;;;;;5087483;27;20561;-67
2023/03/19 07:30:34;;;;;;;6.18;1.77;;;;;;;;;;5094765;27;20147;-67
2023/03/19 07:33:03;;;;;;;3.53;1.70;;;;;;;;;;5097524;28;20047;-66
2023/03/19 07:35:31;;;;;;;4.50;2.42;;;;;;;;;;5092720;27;20048;-67
2023/03/19 07:38:01;;;;;;;3.38;1.40;;;;;;;;;;5097818;28;20047;-66
2023/03/19 07:40:31;;;;;;;3.92;1.20;;;;;;;;;;5097244;28;20051;-66
2023/03/19 07:42:59;;;;;;;5.57;2.08;;;;;;;;;;5101183;28;20130;-66
2023/03/19 07:45:28;;;;;;;3.63;1.65;;;;;;;;;;5098835;28;20042;-67
2023/03/19 07:47:56;;;;;;;5.63;2.50;;;;;;;;;;5094840;28;20052;-68
2023/03/19 07:50:24;;;;;;;3.65;1.45;;;;;;;;;;5096255;28;20547;-66
2023/03/19 07:52:52;;;;;;;4.35;1.90;;;;;;;;;;5096271;28;20044;-67
2023/03/19 07:55:21;;;;;;;2.22;1.20;;;;;;;;;;5101441;27;20047;-67
2023/03/19 07:57:50;;;;;;;3.08;1.92;;;;;;;;;;5091964;27;20450;-67
2023/03/19 08:00:19;;;;;;;4.43;1.13;;;;;;;;;;5090235;28;20046;-66
2023/03/19 08:02:47;;;;;;;3.33;1.05;;;;;;;;;;5092905;27;20051;-67
2023/03/19 08:05:16;;;;;;;3.10;1.42;;;;;;;;;;5095894;27;20101;-67
2023/03/19 08:07:44;;;;;;;13.68;1.85;;;;;;;;;;5093548;28;20051;-67
2023/03/19 08:10:13;;;;;;;2.55;1.00;;;;;;;;;;5096282;28;20051;-66
2023/03/19 08:12:41;;;;;;;1.70;1.00;;;;;;;;;;5092025;27;20048;-67
2023/03/19 08:15:11;;;;;;;2.00;0.98;;;;;;;;;;5099036;28;20047;-65
2023/03/19 08:17:40;;;;;;;1.42;0.98;;;;;;;;;;5093334;28;20075;-67
2023/03/19 08:20:09;;;;;;;1.58;0.88;;;;;;;;;;5097757;28;20071;-66
2023/03/19 08:22:39;;;;;;;2.67;1.70;;;;;;;;;;5100808;28;20059;-66
2023/03/19 08:25:08;;;;;;;1.35;1.13;;;;;;;;;;5095234;28;20098;-66
2023/03/19 08:27:37;;;;;;;1.20;0.80;;;;;;;;;;5095399;28;20837;-66
2023/03/19 08:30:06;;;;;;;1.77;1.33;;;;;;;;;;5091970;28;20889;-66
2023/03/19 08:32:36;;;;;;;1.00;0.70;;;;;;;;;;5095561;27;20515;-66
2023/03/19 08:35:06;;;;;;;1.85;1.58;;;;;;;;;;5092468;28;21029;-66
2023/03/19 08:37:34;;;;;;;3.33;0.73;;;;;;;;;;5097829;28;20061;-67
2023/03/19 08:40:03;;;;;;;1.77;1.02;;;;;;;;;;5096591;27;20561;-66
2023/03/19 08:42:32;;;;;;;1.15;0.88;;;;;;;;;;5091775;28;20044;-66
2023/03/19 08:45:00;;;;;;;1.95;1.27;;;;;;;;;;5093022;28;20046;-67
2023/03/19 08:47:28;;;;;;;1.30;0.70;;;;;;;;;;5091360;28;20064;-67
2023/03/19 08:49:58;;;;;;;8.02;1.25;;;;;;;;;;5095253;28;20078;-66
2023/03/19 08:52:26;;;;;;;1.15;0.98;;;;;;;;;;5091257;28;20048;-65
2023/03/19 08:54:55;;;;;;;3.22;1.23;;;;;;;;;;5092598;27;20058;-66
2023/03/19 08:57:23;;;;;;;2.08;0.90;;;;;;;;;;5093129;28;20708;-66
2023/03/19 08:59:53;;;;;;;2.33;1.15;;;;;;;;;;5098955;28;20056;-66
2023/03/19 09:02:21;;;;;;;1.88;0.75;;;;;;;;;;5096996;28;20073;-66
2023/03/19 09:04:49;;;;;;;2.13;0.90;;;;;;;;;;5099314;28;20049;-66
2023/03/19 09:07:19;;;;;;;2.00;1.25;;;;;;;;;;5097831;28;20416;-66
2023/03/19 09:09:47;;;;;;;3.25;1.17;;;;;;;;;;5092728;27;20395;-66
2023/03/19 09:12:16;;;;;;;1.55;0.90;;;;;;;;;;5096159;28;20051;-66
2023/03/19 09:14:45;;;;;;;0.75;0.73;;;;;;;;;;5096889;28;20059;-66
2023/03/19 09:17:14;;;;;;;2.15;1.48;;;;;;;;;;5095160;28;20044;-66
2023/03/19 09:19:42;;;;;;;2.42;1.05;;;;;;;;;;5096368;28;20047;-65
2023/03/19 09:22:11;;;;;;;3.63;1.25;;;;;;;;;;5095344;28;20065;-66
2023/03/19 09:24:41;;;;;;;1.10;0.90;;;;;;;;;;5099306;27;20071;-67
2023/03/19 09:27:09;;;;;;;1.60;0.75;;;;;;;;;;5097002;27;20051;-66
2023/03/19 09:29:37;;;;;;;1.00;0.90;;;;;;;;;;5100099;28;20044;-67
2023/03/19 09:32:06;;;;;;;2.05;0.90;;;;;;;;;;5095185;28;20420;-67
2023/03/19 09:34:34;;;;;;;2.00;0.80;;;;;;;;;;5092576;28;20537;-67
2023/03/19 09:37:02;;;;;;;0.68;0.57;;;;;;;;;;5090891;28;20048;-67
2023/03/19 09:39:31;;;;;;;0.73;0.70;;;;;;;;;;5093232;28;20040;-67
2023/03/19 09:42:06;;;;;;;1.77;0.90;;;;;;;;;;5098649;28;20399;-67
2023/03/19 09:44:36;;;;;;;1.88;1.17;;;;;;;;;;5098992;28;20040;-66
2023/03/19 09:47:10;;;;;;;2.30;0.95;;;;;;;;;;5095983;28;20048;-67
2023/03/19 09:49:39;;;;;;;0.55;0.55;;;;;;;;;;5095790;28;20048;-68
2023/03/19 09:52:16;;;;;;;0.73;0.65;;;;;;;;;;5091894;28;20048;-67
2023/03/19 09:54:47;;;;;;;3.92;1.42;;;;;;;;;;5096852;28;20043;-67
2023/03/19 09:57:17;;;;;;;7.38;1.42;;;;;;;;;;5096913;28;20139;-66
2023/03/19 09:59:46;;;;;;;1.75;1.05;;;;;;;;;;5099928;28;20040;-67
2023/03/19 10:02:25;;;;;;;1.27;0.70;;;;;;;;;;5091688;28;20051;-67
2023/03/19 10:04:57;;;;;;;2.42;1.05;;;;;;;;;;5092687;28;20062;-66
2023/03/19 10:07:32;;;;;;;2.40;1.20;;;;;;;;;;5098079;28;20335;-66
2023/03/19 10:10:07;;;;;;;1.27;0.73;;;;;;;;;;5093662;28;20538;-67
2023/03/19 10:12:43;;;;;;;1.02;0.75;;;;;;;;;;5096240;28;20040;-66
2023/03/19 10:15:18;;;;;;;0.93;0.63;;;;;;;;;;5094135;28;20416;-70
2023/03/19 10:17:53;;;;;;;0.47;0.45;;;;;;;;;;5095722;28;20052;-66
2023/03/19 10:20:25;;;;;;;2.72;1.10;;;;;;;;;;5092723;28;20058;-66
2023/03/19 10:22:58;;;;;;;1.10;0.68;;;;;;;;;;5093423;28;20064;-64
2023/03/19 10:25:28;;;;;;;1.88;0.65;;;;;;;;;;5094058;28;20059;-64
2023/03/19 10:28:01;;;;;;;2.88;0.82;;;;;;;;;;5098114;28;20052;-66
2023/03/19 10:30:32;;;;;;;1.92;0.98;;;;;;;;;;5097640;28;20127;-66
2023/03/19 10:33:07;;;;;;;2.08;0.77;;;;;;;;;;5097905;28;20613;-65
2023/03/19 10:35:38;;;;;;;1.50;0.90;;;;;;;;;;5092497;28;20062;-64
2023/03/19 10:38:21;;;;;;;1.65;0.68;;;;;;;;;;5095372;28;20043;-64
2023/03/19 10:41:01;;;;;;;0.50;0.50;;;;;;;;;;5096526;28;20059;-65
2023/03/19 10:43:31;;;;;;;2.55;1.02;;;;;;;;;;5096250;28;20075;-64
2023/03/19 10:45:59;;;;;;;1.70;0.82;;;;;;;;;;5093786;28;20496;-66
2023/03/19 10:48:29;;;;;;;0.77;0.70;;;;;;;;;;5090269;28;20051;-67
2023/03/19 10:50:58;;;;;;;1.35;0.75;;;;;;;;;;5092459;28;20043;-66
2023/03/19 10:53:32;;;;;;;3.42;0.63;;;;;;;;;;5095308;28;20040;-67
2023/03/19 10:56:02;;;;;;;3.20;1.00;;;;;;;;;;5095130;27;20052;-66
2023/03/19 10:58:33;;;;;;;0.88;0.80;;;;;;;;;;5096761;28;20059;-66
2023/03/19 11:01:04;;;;;;;1.85;0.90;;;;;;;;;;5096088;28;20043;-66
2023/03/19 11:03:35;;;;;;;1.23;0.60;;;;;;;;;;5098231;28;20044;-67
2023/03/19 11:06:05;;;;;;;1.02;0.70;;;;;;;;;;5100937;28;20073;-66
2023/03/19 11:08:35;;;;;;;6.78;0.85;;;;;;;;;;5096959;28;20109;-66
2023/03/19 11:11:03;;;;;;;1.30;1.08;;;;;;;;;;5101276;27;20047;-66
2023/03/19 11:13:34;;;;;;;1.80;0.57;;;;;;;;;;5101461;28;20066;-67
2023/03/19 11:16:04;;;;;;;1.83;0.50;;;;;;;;;;5102002;28;20496;-66
2023/03/19 11:18:37;;;;;;;1.30;0.75;;;;;;;;;;5101020;28;20048;-66
2023/03/19 11:21:08;;;;;;;1.02;0.93;;;;;;;;;;5101228;28;20177;-66
2023/03/19 11:23:39;;;;;;;1.30;0.73;;;;;;;;;;5098410;28;20134;-70
2023/03/19 11:26:09;;;;;;;3.22;1.02;;;;;;;;;;5097491;28;20044;-66
2023/03/19 11:28:38;;;;;;;2.33;1.00;;;;;;;;;;5099270;28;20055;-65
2023/03/19 11:31:13;;;;;;;2.83;1.27;;;;;;;;;;5096395;28;20043;-66
2023/03/19 11:33:52;;;;;;;1.57;0.90;;;;;;;;;;5102146;28;20063;-66
2023/03/19 11:36:23;;;;;;;2.65;0.75;;;;;;;;;;5096601;28;20064;-66
2023/03/19 11:38:59;;;;;;;0.52;0.40;;;;;;;;;;5095296;28;20069;-66
2023/03/19 11:41:35;;;;;;;3.25;0.80;;;;;;;;;;5096945;27;20040;-67
2023/03/19 11:44:06;;;;;;;1.25;0.75;;;;;;;;;;5095332;28;21142;-67
2023/03/19 11:46:38;;;;;;;3.33;0.57;;;;;;;;;;5094971;28;20052;-68
2023/03/19 11:49:12;;;;;;;3.13;0.90;;;;;;;;;;5096072;28;20059;-68
2023/03/19 11:51:45;;;;;;;2.35;0.95;;;;;;;;;;5101097;28;20048;-67
2023/03/19 11:54:17;;;;;;;1.08;0.65;;;;;;;;;;5091671;28;20059;-67
2023/03/19 11:56:49;;;;;;;1.08;0.68;;;;;;;;;;5091718;27;20058;-66
2023/03/19 11:59:32;;;;;;;1.90;0.98;;;;;;;;;;5094913;28;20050;-67
2023/03/19 12:02:17;;;;;;;0.82;0.50;;;;;;;;;;5095996;28;20062;-68
2023/03/19 12:05:00;;;;;;;2.70;0.50;;;;;;;;;;5094895;28;20522;-67
2023/03/19 12:07:33;;;;;;;0.82;0.52;;;;;;;;;;5093227;28;20047;-67
2023/03/19 12:10:08;;;;;;;1.10;0.73;;;;;;;;;;5098045;28;20039;-67
2023/03/19 12:12:40;;;;;;;0.77;0.63;;;;;;;;;;5094600;27;20318;-67
2023/03/19 12:15:17;;;;;;;0.65;0.55;;;;;;;;;;5101931;28;20040;-67
2023/03/19 12:17:52;;;;;;;1.40;0.85;;;;;;;;;;5100590;27;20064;-67
2023/03/19 12:20:44;;;;;;;2.72;0.63;;;;;;;;;;5093076;28;20052;-67
2023/03/19 12:23:16;;;;;;;0.93;0.60;;;;;;;;;;5074443;28;20171;-67
2023/03/19 12:25:51;;;;;;;1.48;0.50;;;;;;;;;;5095078;27;20120;-68
2023/03/19 12:28:24;;;;;;;0.80;0.77;;;;;;;;;;5093786;27;21803;-66
2023/03/19 12:31:01;;;;;;;0.85;0.63;;;;;;;;;;5105545;28;20052;-67
2023/03/19 12:33:37;;;;;;;1.65;0.55;;;;;;;;;;5104003;28;20553;-67
2023/03/19 12:36:08;;;;;;;0.60;0.60;;;;;;;;;;5094326;28;20059;-67
2023/03/19 12:38:39;;;;;;;1.10;0.77;;;;;;;;;;5097456;28;20488;-67
2023/03/19 12:41:11;;;;;;;0.60;0.60;;;;;;;;;;5097526;27;20596;-67
2023/03/19 12:43:42;;;;;;;1.30;0.70;;;;;;;;;;5093534;28;20503;-67
2023/03/19 12:46:13;;;;;;;1.80;1.00;;;;;;;;;;5097972;28;20472;-66
2023/03/19 12:48:44;;;;;;;2.25;0.80;;;;;;;;;;5093997;28;20741;-65
2023/03/19 12:51:14;;;;;;;1.15;0.70;;;;;;;;;;5097361;28;20074;-67
2023/03/19 12:53:46;;;;;;;1.17;0.80;;;;;;;;;;5099689;28;20083;-68
2023/03/19 12:56:18;;;;;;;1.02;0.50;;;;;;;;;;5098662;27;20051;-67
2023/03/19 12:58:51;;;;;;;2.33;0.60;;;;;;;;;;5096504;28;20079;-67
2023/03/19 13:01:24;;;;;;;0.60;0.40;;;;;;;;;;5102648;28;20046;-68
2023/03/19 13:03:56;;;;;;;0.40;0.40;;;;;;;;;;5093866;28;20043;-67
2023/03/19 13:06:26;;;;;;;0.32;0.32;;;;;;;;;;5093924;28;20539;-67
2023/03/19 13:08:59;;;;;;;0.93;0.68;;;;;;;;;;5095827;28;20106;-66
2023/03/19 13:11:35;;;;;;;5.03;0.40;;;;;;;;;;5099965;27;20464;-67
2023/03/19 13:14:07;;;;;;;1.58;0.93;;;;;;;;;;5094548;28;20115;-68
2023/03/19 13:16:40;;;;;;;1.52;0.68;;;;;;;;;;5099511;28;20442;-68
2023/03/19 13:19:14;;;;;;;1.95;0.57;;;;;;;;;;5098114;28;20715;-68
2023/03/19 13:21:43;;;;;;;1.43;0.53;;;;;;;;;;5101561;28;20062;-68
2023/03/19 13:24:16;;;;;;;1.42;0.47;;;;;;;;;;5095895;28;20162;-68
2023/03/19 13:26:45;;;;;;;0.88;0.50;;;;;;;;;;5095628;28;20077;-68
2023/03/19 13:29:18;;;;;;;1.02;0.70;;;;;;;;;;5096050;28;20046;-68
2023/03/19 13:31:48;;;;;;;1.95;0.68;;;;;;;;;;5097395;28;20097;-68
2023/03/19 13:34:22;;;;;;;0.70;0.70;;;;;;;;;;5098282;28;20789;-68
2023/03/19 13:36:53;;;;;;;0.82;0.50;;;;;;;;;;5099881;28;20048;-67
2023/03/19 13:39:26;;;;;;;0.30;0.30;;;;;;;;;;5096887;27;20059;-68
2023/03/19 13:41:58;;;;;;;0.30;0.30;;;;;;;;;;5095654;28;20055;-68
2023/03/19 13:44:34;;;;;;;0.57;0.40;;;;;;;;;;5099600;28;20056;-67
2023/03/19 13:47:25;;;;;;;1.65;0.93;;;;;;;;;;5096954;28;20564;-68
2023/03/19 13:50:14;;;;;;;0.77;0.50;;;;;;;;;;5098691;28;20052;-67
2023/03/19 13:52:48;;;;;;;1.42;0.60;;;;;;;;;;5093729;28;20046;-68
2023/03/19 13:55:33;;;;;;;0.50;0.50;;;;;;;;;;5095806;28;20082;-68
2023/03/19 13:58:16;;;;;;;0.55;0.40;;;;;;;;;;5096794;28;20566;-67
2023/03/19 14:00:56;;;;;;;1.25;0.63;;;;;;;;;;5095887;28;20113;-68
2023/03/19 14:03:27;;;;;;;0.55;0.40;;;;;;;;;;5099407;28;20051;-68
2023/03/19 14:05:58;;;;;;;0.40;0.35;;;;;;;;;;5097052;28;20060;-67
2023/03/19 14:08:27;;;;;;;0.57;0.55;;;;;;;;;;5073412;28;20401;-67
2023/03/19 14:10:57;;;;;;;0.85;0.50;;;;;;;;;;5073232;28;20519;-68
2023/03/19 14:13:37;;;;;;;0.63;0.63;;;;;;;;;;5072961;28;20088;-68
2023/03/19 14:16:07;;;;;;;1.83;0.68;;;;;;;;;;5077291;28;20148;-68
2023/03/19 14:18:40;;;;;;;1.20;0.30;;;;;;;;;;5075302;28;20598;-69
2023/03/19 14:21:10;;;;;;;1.17;0.63;;;;;;;;;;5077326;28;20523;-68
2023/03/19 14:23:42;;;;;;;3.78;0.90;;;;;;;;;;5077171;28;20062;-67
2023/03/19 14:26:16;;;;;;;1.25;0.57;;;;;;;;;;5077288;28;20090;-68
2023/03/19 14:28:57;;;;;;;1.52;1.02;;;;;;;;;;5096499;28;20048;-67
2023/03/19 14:31:31;;;;;;;1.30;0.52;;;;;;;;;;5099718;28;20143;-67
2023/03/19 14:34:03;;;;;;;0.43;0.40;;;;;;;;;;5099230;28;20480;-67
2023/03/19 14:36:31;;;;;;;0.95;0.47;;;;;;;;;;5100956;27;20476;-67
2023/03/19 14:39:01;;;;;;;0.70;0.40;;;;;;;;;;5101562;28;20735;-68
2023/03/19 14:41:33;;;;;;;3.03;0.70;;;;;;;;;;5099367;28;20495;-68
2023/03/19 14:44:21;;;;;;;0.88;0.57;;;;;;;;;;5102528;28;20036;-68
2023/03/19 14:46:54;;;;;;;0.82;0.50;;;;;;;;;;5098193;28;20040;-67
2023/03/19 14:49:42;;;;;;;0.75;0.50;;;;;;;;;;5094873;28;20052;-67
2023/03/19 14:52:11;;;;;;;0.80;0.50;;;;;;;;;;5103379;28;20055;-66
2023/03/19 14:54:42;;;;;;;0.43;0.32;;;;;;;;;;5101713;28;20427;-68
2023/03/19 14:57:16;;;;;;;0.95;0.52;;;;;;;;;;5099375;28;20085;-67
2023/03/19 14:59:44;;;;;;;0.88;0.63;;;;;;;;;;5100430;28;20408;-69
2023/03/19 15:02:34;;;;;;;1.30;0.70;;;;;;;;;;5096398;28;20052;-68